CAL23 KONT-RCTP
Flight info
| Callsign | CAL23 |
|---|---|
| Flight time | N/A |
| Altitude | 34000 |
| Route | SNSHN5 COREZ DCT RGOOD DCT OAK DCT AMAKR DCT VESPA DCT 42N130W 47N140W 52N150W 55N160W DCT PINTT/N0494F360 DCT OBOYD DCT NIKLL/N0489F370 R220 NRKEY/N0497F380 R220 NUBDA/N0495F390 R220 NANAC/N0487F380 R220 IXE Y88 TEPEX/N0484F400 Y88 NAKTU Y12 KOHWA Y54 TURFY Y24 KOSHI Y50 IGMON A1 DRAKE DRAKE1A |
| Aircraft | A359/H-SDE2E3GHIJ3J4J5LM1ORWXY/LB1D1 |
Departure
| Time | 2026-04-29 02:22 |
|---|---|
| Airport | Ontario International Airport (KONT) |
Arrival
| Time | N/A |
|---|---|
| Airport | Taiwan Taoyuan International Airport (RCTP) |
| Time | Latitude | Longitude | Altitude | Speed | Heading |
|---|---|---|---|---|---|
| 2026-04-29 01:59 | 34.05990 | -117.59473 | 951 ft | 0 kts | 359° |
| 2026-04-29 02:11 | 34.05984 | -117.59473 | 951 ft | 4 kts | 359° |
| 2026-04-29 02:11 | 34.05957 | -117.59472 | 950 ft | 4 kts | 359° |
| 2026-04-29 02:11 | 34.05930 | -117.59474 | 950 ft | 4 kts | 19° |
| 2026-04-29 02:11 | 34.05909 | -117.59490 | 950 ft | 4 kts | 51° |
| 2026-04-29 02:12 | 34.05898 | -117.59516 | 950 ft | 3 kts | 88° |
| 2026-04-29 02:12 | 34.05898 | -117.59519 | 950 ft | 0 kts | 90° |
| 2026-04-29 02:17 | 34.05897 | -117.59497 | 950 ft | 8 kts | 90° |
| 2026-04-29 02:17 | 34.05897 | -117.59417 | 950 ft | 10 kts | 90° |
| 2026-04-29 02:17 | 34.05896 | -117.59334 | 950 ft | 10 kts | 89° |
| 2026-04-29 02:17 | 34.05897 | -117.59248 | 951 ft | 10 kts | 89° |
| 2026-04-29 02:18 | 34.05898 | -117.59157 | 951 ft | 11 kts | 89° |
| 2026-04-29 02:18 | 34.05899 | -117.59061 | 951 ft | 12 kts | 88° |
| 2026-04-29 02:18 | 34.05899 | -117.58963 | 951 ft | 12 kts | 90° |
| 2026-04-29 02:18 | 34.05899 | -117.58863 | 951 ft | 12 kts | 91° |
| 2026-04-29 02:19 | 34.05897 | -117.58796 | 951 ft | 12 kts | 91° |
| 2026-04-29 02:19 | 34.05897 | -117.58694 | 951 ft | 12 kts | 90° |
| 2026-04-29 02:19 | 34.05897 | -117.58590 | 951 ft | 13 kts | 90° |
| 2026-04-29 02:19 | 34.05898 | -117.58482 | 951 ft | 13 kts | 89° |
| 2026-04-29 02:20 | 34.05899 | -117.58372 | 951 ft | 13 kts | 89° |
| 2026-04-29 02:20 | 34.05884 | -117.58297 | 949 ft | 6 kts | 131° |
| 2026-04-29 02:20 | 34.05854 | -117.58276 | 950 ft | 6 kts | 162° |
| 2026-04-29 02:20 | 34.05769 | -117.58271 | 951 ft | 16 kts | 180° |
| 2026-04-29 02:21 | 34.05706 | -117.58278 | 950 ft | 7 kts | 205° |
| 2026-04-29 02:21 | 34.05691 | -117.58319 | 952 ft | 5 kts | 264° |
| 2026-04-29 02:21 | 34.05686 | -117.58472 | 953 ft | 47 kts | 270° |
| 2026-04-29 02:21 | 34.05691 | -117.59188 | 950 ft | 122 kts | 270° |
| 2026-04-29 02:22 | 34.05690 | -117.60482 | 966 ft | 184 kts | 269° |
| 2026-04-29 02:22 | 34.05702 | -117.61726 | 1468 ft | 189 kts | 270° |
| 2026-04-29 02:22 | 34.05690 | -117.62818 | 2288 ft | 186 kts | 268° |
| 2026-04-29 02:22 | 34.05696 | -117.64035 | 2850 ft | 199 kts | 270° |
| 2026-04-29 02:23 | 34.05735 | -117.65769 | 3523 ft | 216 kts | 271° |
| 2026-04-29 02:23 | 34.05773 | -117.67025 | 3901 ft | 227 kts | 271° |
| 2026-04-29 02:23 | 34.05787 | -117.67540 | 3976 ft | 231 kts | 271° |
| 2026-04-29 02:23 | 34.05845 | -117.69570 | 4185 ft | 250 kts | 272° |
| 2026-04-29 02:24 | 34.06146 | -117.71699 | 4537 ft | 263 kts | 283° |
| 2026-04-29 02:24 | 34.06579 | -117.73580 | 5033 ft | 266 kts | 285° |
| 2026-04-29 02:24 | 34.07102 | -117.75726 | 5634 ft | 268 kts | 285° |
| 2026-04-29 02:25 | 34.08607 | -117.79759 | 6785 ft | 277 kts | 307° |
| 2026-04-29 02:25 | 34.09883 | -117.81520 | 7438 ft | 280 kts | 311° |
| 2026-04-29 02:25 | 34.11211 | -117.83249 | 8064 ft | 283 kts | 311° |
| 2026-04-29 02:25 | 34.12468 | -117.85100 | 8719 ft | 286 kts | 306° |
| 2026-04-29 02:26 | 34.13110 | -117.86151 | 9080 ft | 287 kts | 304° |
| 2026-04-29 02:26 | 34.14276 | -117.88116 | 9737 ft | 289 kts | 304° |
| 2026-04-29 02:26 | 34.15448 | -117.90105 | 10324 ft | 295 kts | 303° |
| 2026-04-29 02:26 | 34.16668 | -117.92174 | 10617 ft | 311 kts | 303° |
| 2026-04-29 02:27 | 34.17953 | -117.94360 | 10890 ft | 327 kts | 303° |
| 2026-04-29 02:27 | 34.19300 | -117.96651 | 11159 ft | 342 kts | 303° |
| 2026-04-29 02:27 | 34.20700 | -117.99032 | 11433 ft | 356 kts | 303° |
| 2026-04-29 02:27 | 34.22154 | -118.01499 | 11876 ft | 363 kts | 303° |
| 2026-04-29 02:28 | 34.23621 | -118.03990 | 12587 ft | 361 kts | 303° |
| 2026-04-29 02:28 | 34.25070 | -118.06445 | 13357 ft | 357 kts | 302° |
| 2026-04-29 02:28 | 34.26308 | -118.08550 | 13968 ft | 356 kts | 302° |
| 2026-04-29 02:29 | 34.26672 | -118.09169 | 14114 ft | 357 kts | 302° |
| 2026-04-29 02:29 | 34.28137 | -118.11665 | 14443 ft | 366 kts | 302° |
| 2026-04-29 02:29 | 34.29677 | -118.14155 | 14881 ft | 371 kts | 304° |
| 2026-04-29 02:29 | 34.31272 | -118.16634 | 15372 ft | 375 kts | 304° |
| 2026-04-29 02:30 | 34.32874 | -118.19138 | 15938 ft | 377 kts | 303° |
| 2026-04-29 02:30 | 34.34474 | -118.21656 | 16464 ft | 379 kts | 303° |
| 2026-04-29 02:30 | 34.35196 | -118.22793 | 16693 ft | 380 kts | 303° |
| 2026-04-29 02:30 | 34.35804 | -118.23750 | 16884 ft | 381 kts | 303° |
| 2026-04-29 02:31 | 34.37332 | -118.26160 | 17430 ft | 382 kts | 303° |
| 2026-04-29 02:31 | 34.38952 | -118.28719 | 17982 ft | 384 kts | 303° |
| 2026-04-29 02:31 | 34.40580 | -118.31289 | 18536 ft | 385 kts | 303° |
| 2026-04-29 02:31 | 34.42216 | -118.33876 | 19038 ft | 388 kts | 302° |
| 2026-04-29 02:32 | 34.43861 | -118.36485 | 19557 ft | 390 kts | 302° |
| 2026-04-29 02:32 | 34.45512 | -118.39105 | 20063 ft | 392 kts | 302° |
| 2026-04-29 02:32 | 34.47173 | -118.41744 | 20577 ft | 395 kts | 302° |
| 2026-04-29 02:32 | 34.48836 | -118.44384 | 21041 ft | 397 kts | 302° |
| 2026-04-29 02:33 | 34.50520 | -118.47064 | 21530 ft | 399 kts | 302° |
| 2026-04-29 02:33 | 34.52205 | -118.49745 | 22020 ft | 401 kts | 302° |
| 2026-04-29 02:33 | 34.53904 | -118.52448 | 22516 ft | 403 kts | 302° |
| 2026-04-29 02:33 | 34.55577 | -118.55120 | 22984 ft | 405 kts | 302° |
| 2026-04-29 02:34 | 34.57288 | -118.57854 | 23447 ft | 407 kts | 302° |
| 2026-04-29 02:34 | 34.59009 | -118.60601 | 23896 ft | 410 kts | 302° |
| 2026-04-29 02:34 | 34.60736 | -118.63356 | 24381 ft | 410 kts | 302° |
| 2026-04-29 02:34 | 34.62466 | -118.66119 | 24803 ft | 413 kts | 301° |
| 2026-04-29 02:35 | 34.64210 | -118.68907 | 25151 ft | 416 kts | 301° |
| 2026-04-29 02:35 | 34.65964 | -118.71716 | 25583 ft | 418 kts | 301° |
| 2026-04-29 02:35 | 34.67724 | -118.74537 | 25999 ft | 420 kts | 301° |
| 2026-04-29 02:35 | 34.69491 | -118.77368 | 26441 ft | 421 kts | 300° |
| 2026-04-29 02:36 | 34.71264 | -118.80211 | 26846 ft | 423 kts | 300° |
| 2026-04-29 02:36 | 34.73046 | -118.83075 | 27190 ft | 425 kts | 300° |
| 2026-04-29 02:36 | 34.74835 | -118.85953 | 27582 ft | 427 kts | 300° |
| 2026-04-29 02:36 | 34.76627 | -118.88835 | 27954 ft | 429 kts | 300° |
| 2026-04-29 02:37 | 34.78509 | -118.91683 | 28321 ft | 435 kts | 304° |
| 2026-04-29 02:37 | 34.80721 | -118.94192 | 28658 ft | 447 kts | 314° |
| 2026-04-29 02:37 | 34.83351 | -118.96309 | 28940 ft | 459 kts | 320° |
| 2026-04-29 02:37 | 34.86124 | -118.98291 | 29184 ft | 464 kts | 321° |
| 2026-04-29 02:38 | 34.88925 | -119.00273 | 29493 ft | 466 kts | 320° |
| 2026-04-29 02:38 | 34.91734 | -119.02267 | 29814 ft | 468 kts | 320° |
| 2026-04-29 02:38 | 34.94542 | -119.04268 | 30089 ft | 470 kts | 320° |
| 2026-04-29 02:38 | 34.97370 | -119.06290 | 30356 ft | 472 kts | 320° |
| 2026-04-29 02:39 | 35.00199 | -119.08317 | 30601 ft | 474 kts | 320° |
| 2026-04-29 02:39 | 35.03049 | -119.10358 | 30851 ft | 475 kts | 320° |
| 2026-04-29 02:39 | 35.05910 | -119.12411 | 31090 ft | 477 kts | 320° |
| 2026-04-29 02:39 | 35.08781 | -119.14472 | 31316 ft | 479 kts | 320° |
| 2026-04-29 02:40 | 35.11668 | -119.16546 | 31524 ft | 482 kts | 320° |
| 2026-04-29 02:40 | 35.14545 | -119.18613 | 31856 ft | 480 kts | 320° |
| 2026-04-29 02:40 | 35.17424 | -119.20683 | 32162 ft | 480 kts | 320° |
| 2026-04-29 02:40 | 35.20307 | -119.22759 | 32448 ft | 479 kts | 319° |
| 2026-04-29 02:41 | 35.23178 | -119.24831 | 32682 ft | 480 kts | 319° |
| 2026-04-29 02:41 | 35.26052 | -119.26907 | 32937 ft | 479 kts | 319° |
| 2026-04-29 02:41 | 35.28919 | -119.28977 | 33244 ft | 478 kts | 319° |
| 2026-04-29 02:41 | 35.31777 | -119.31043 | 33529 ft | 477 kts | 319° |
| 2026-04-29 02:42 | 35.34635 | -119.33111 | 33717 ft | 477 kts | 319° |
| 2026-04-29 02:42 | 35.37498 | -119.35186 | 33894 ft | 478 kts | 319° |
| 2026-04-29 02:42 | 35.40357 | -119.37259 | 34061 ft | 479 kts | 319° |
| 2026-04-29 02:43 | 35.46101 | -119.41435 | 34081 ft | 484 kts | 319° |
| 2026-04-29 02:43 | 35.51895 | -119.45640 | 34085 ft | 483 kts | 320° |
| 2026-04-29 02:44 | 35.57427 | -119.50164 | 34087 ft | 473 kts | 313° |
| 2026-04-29 02:44 | 35.62524 | -119.55251 | 34081 ft | 471 kts | 311° |